createdAt,value
2023-02-25T00:01:14.084Z,47.54
2023-02-25T00:03:42.372Z,47.35
2023-02-25T00:06:13.406Z,47.69
2023-02-25T00:08:44.064Z,47.53
2023-02-25T00:11:13.189Z,47.66
2023-02-25T00:13:42.463Z,47.55
2023-02-25T00:16:12.927Z,47.60
2023-02-25T00:18:44.234Z,47.67
2023-02-25T00:21:15.181Z,47.62
2023-02-25T00:23:44.230Z,47.54
2023-02-25T00:26:12.618Z,47.59
2023-02-25T00:28:41.628Z,47.38
2023-02-25T00:31:13.275Z,47.53
2023-02-25T00:33:42.109Z,47.81
2023-02-25T00:36:12.895Z,47.50
2023-02-25T00:38:41.299Z,47.68
2023-02-25T00:41:11.897Z,47.66
2023-02-25T00:43:42.106Z,47.61
2023-02-25T00:46:13.460Z,47.59
2023-02-25T00:48:42.104Z,47.50
2023-02-25T00:51:12.363Z,47.67
2023-02-25T00:53:41.200Z,47.69
2023-02-25T00:56:14.909Z,47.72
2023-02-25T00:58:43.345Z,47.59
2023-02-25T01:01:20.138Z,46.90
2023-02-25T01:03:49.169Z,47.54
2023-02-25T01:06:17.321Z,47.57
2023-02-25T01:08:45.843Z,47.50
2023-02-25T01:11:16.092Z,47.64
2023-02-25T01:13:44.497Z,47.41
2023-02-25T01:16:14.570Z,47.35
2023-02-25T01:18:44.510Z,47.35
2023-02-25T01:21:17.580Z,47.33
2023-02-25T01:23:46.172Z,47.11
2023-02-25T01:26:14.242Z,47.16
2023-02-25T01:28:42.295Z,47.30
2023-02-25T01:31:18.509Z,46.95
2023-02-25T01:33:48.432Z,46.88
2023-02-25T01:36:16.151Z,47.23
2023-02-25T01:38:44.034Z,47.14
2023-02-25T01:41:11.822Z,46.99
2023-02-25T01:43:40.958Z,47.40
2023-02-25T01:46:08.860Z,47.29
2023-02-25T01:48:40.538Z,46.99
2023-02-25T01:51:13.159Z,47.14
2023-02-25T01:53:45.386Z,47.29
2023-02-25T01:56:15.870Z,47.26
2023-02-25T01:58:44.474Z,47.09
2023-02-25T02:01:15.372Z,47.33
2023-02-25T02:03:44.389Z,47.47
2023-02-25T02:06:16.680Z,47.15
2023-02-25T02:08:46.338Z,47.34
2023-02-25T02:11:14.106Z,47.51
2023-02-25T02:13:48.193Z,47.21
2023-02-25T02:16:32.972Z,47.28
2023-02-25T02:19:15.378Z,47.22
2023-02-25T02:22:02.826Z,47.04
2023-02-25T02:24:56.804Z,46.95
2023-02-25T02:27:27.976Z,47.04
2023-02-25T02:30:19.146Z,46.94
2023-02-25T02:32:54.357Z,47.15
2023-02-25T02:35:28.599Z,47.13
2023-02-25T02:38:04.786Z,47.27
2023-02-25T02:40:44.629Z,47.19
2023-02-25T02:43:22.548Z,47.16
2023-02-25T02:45:56.897Z,47.27
2023-02-25T02:48:32.283Z,47.21
2023-02-25T02:51:03.274Z,47.58
2023-02-25T02:53:38.149Z,47.29
2023-02-25T02:56:10.117Z,47.41
2023-02-25T02:58:42.357Z,47.22
2023-02-25T03:01:17.562Z,47.19
2023-02-25T03:03:51.880Z,47.25
2023-02-25T03:06:28.396Z,47.26
2023-02-25T03:09:00.038Z,47.20
2023-02-25T03:11:27.979Z,47.25
2023-02-25T03:13:56.809Z,47.11
2023-02-25T03:16:30.877Z,47.00
2023-02-25T03:19:04.728Z,47.23
2023-02-25T03:21:39.057Z,47.15
2023-02-25T03:24:14.783Z,47.02
2023-02-25T03:26:42.765Z,47.40
2023-02-25T03:29:17.174Z,47.00
2023-02-25T03:31:54.165Z,47.09
2023-02-25T03:34:29.304Z,47.23
2023-02-25T03:37:04.523Z,46.95
2023-02-25T03:39:37.222Z,47.14
2023-02-25T03:42:11.670Z,47.21
2023-02-25T03:44:45.502Z,47.18
2023-02-25T03:47:15.309Z,47.09
2023-02-25T03:49:51.831Z,46.82
2023-02-25T03:52:24.170Z,47.14
2023-02-25T03:54:58.348Z,47.33
2023-02-25T03:57:35.937Z,47.31
2023-02-25T04:00:15.840Z,47.31
2023-02-25T04:02:45.019Z,47.18
2023-02-25T04:05:15.419Z,47.10
2023-02-25T04:07:43.193Z,47.29
2023-02-25T04:10:14.593Z,47.42
2023-02-25T04:12:42.857Z,47.12
2023-02-25T04:15:11.616Z,47.15
2023-02-25T04:17:39.495Z,47.23
2023-02-25T04:20:08.072Z,47.14
2023-02-25T04:22:37.446Z,47.16
2023-02-25T04:25:06.042Z,47.26
2023-02-25T04:27:33.916Z,47.30
2023-02-25T04:30:01.777Z,47.27
2023-02-25T04:32:29.765Z,47.18
2023-02-25T04:35:03.071Z,47.04
2023-02-25T04:37:31.519Z,47.34
2023-02-25T04:40:00.645Z,47.23
2023-02-25T04:42:28.446Z,47.35
2023-02-25T04:44:56.240Z,47.37
2023-02-25T04:47:24.092Z,47.35
2023-02-25T04:49:51.864Z,47.32
2023-02-25T04:52:19.855Z,47.29
2023-02-25T04:54:47.596Z,47.09
2023-02-25T04:57:16.854Z,47.27
2023-02-25T04:59:44.591Z,47.27
2023-02-25T05:02:12.455Z,47.30
2023-02-25T05:04:41.824Z,47.08
2023-02-25T05:07:09.958Z,47.22
2023-02-25T05:09:37.668Z,47.04
2023-02-25T05:12:05.785Z,47.11
2023-02-25T05:14:34.945Z,47.11
2023-02-25T05:17:02.693Z,47.04
2023-02-25T05:19:30.419Z,47.08
2023-02-25T05:21:58.203Z,47.34
2023-02-25T05:24:26.182Z,47.09
2023-02-25T05:26:54.200Z,47.15
2023-02-25T05:29:22.298Z,47.20
2023-02-25T05:31:52.023Z,47.13
2023-02-25T05:34:19.984Z,47.26
2023-02-25T05:36:47.788Z,47.28
2023-02-25T05:39:15.699Z,47.07
2023-02-25T05:41:43.536Z,47.28
2023-02-25T05:44:11.446Z,47.50
2023-02-25T05:46:39.250Z,47.25
2023-02-25T05:49:08.530Z,47.03
2023-02-25T05:51:36.393Z,47.43
2023-02-25T05:54:04.558Z,47.41
2023-02-25T05:56:32.557Z,47.46
2023-02-25T05:59:00.702Z,47.25
2023-02-25T06:01:29.604Z,47.21
2023-02-25T06:03:58.900Z,47.32
2023-02-25T06:06:30.958Z,47.24
2023-02-25T06:08:59.070Z,47.31
2023-02-25T06:11:28.913Z,47.38
2023-02-25T06:13:58.744Z,47.28
2023-02-25T06:16:31.876Z,47.19
2023-02-25T06:19:00.907Z,47.19
2023-02-25T06:21:30.940Z,47.21
2023-02-25T06:23:58.918Z,47.20
2023-02-25T06:26:26.818Z,47.15
2023-02-25T06:28:55.039Z,47.21
2023-02-25T06:31:24.746Z,47.15
2023-02-25T06:33:53.369Z,47.25
2023-02-25T06:36:22.067Z,47.24
2023-02-25T06:38:51.506Z,47.00
2023-02-25T06:41:22.597Z,47.27
2023-02-25T06:43:52.240Z,47.39
2023-02-25T06:46:22.305Z,47.08
2023-02-25T06:48:50.242Z,47.17
2023-02-25T06:51:18.134Z,47.24
2023-02-25T06:53:47.596Z,47.09
2023-02-25T06:56:20.162Z,47.17
2023-02-25T06:58:48.820Z,47.23
2023-02-25T07:01:17.648Z,47.26
2023-02-25T07:03:45.998Z,47.25
2023-02-25T07:06:15.850Z,47.31
2023-02-25T07:08:43.907Z,47.17
2023-02-25T07:11:15.113Z,47.12
2023-02-25T07:13:44.973Z,47.20
2023-02-25T07:16:13.508Z,47.17
2023-02-25T07:18:43.754Z,47.25
2023-02-25T07:21:12.366Z,47.39
2023-02-25T07:23:40.763Z,47.23
2023-02-25T07:26:11.837Z,47.17
2023-02-25T07:28:39.816Z,47.33
2023-02-25T07:31:13.385Z,46.92
2023-02-25T07:33:42.245Z,47.29
2023-02-25T07:36:11.021Z,47.22
2023-02-25T07:38:40.038Z,47.42
2023-02-25T07:41:09.534Z,47.12
2023-02-25T07:43:37.654Z,47.35
2023-02-25T07:46:06.085Z,47.38
2023-02-25T07:48:35.314Z,47.27
2023-02-25T07:51:06.534Z,47.20
2023-02-25T07:53:37.990Z,47.29
2023-02-25T07:56:07.597Z,46.96
2023-02-25T07:58:38.799Z,47.15
2023-02-25T08:01:09.165Z,47.20
2023-02-25T08:03:39.099Z,47.09
2023-02-25T08:06:08.969Z,47.60
2023-02-25T08:08:37.457Z,47.37
2023-02-25T08:11:09.884Z,47.24
2023-02-25T08:13:39.090Z,47.33
2023-02-25T08:16:08.109Z,47.41
2023-02-25T08:18:36.346Z,47.02
2023-02-25T08:21:05.893Z,47.20
2023-02-25T08:23:34.098Z,47.44
2023-02-25T08:26:02.519Z,47.07
2023-02-25T08:28:34.264Z,47.28
2023-02-25T08:31:05.045Z,47.20
2023-02-25T08:33:32.965Z,47.20
2023-02-25T08:36:10.082Z,47.06
2023-02-25T08:38:38.405Z,47.24
2023-02-25T08:41:07.453Z,47.46
2023-02-25T08:43:37.385Z,47.04
2023-02-25T08:46:06.691Z,47.30
2023-02-25T08:48:34.822Z,47.22
2023-02-25T08:51:08.370Z,47.52
2023-02-25T08:53:39.120Z,47.26
2023-02-25T08:56:07.930Z,47.45
2023-02-25T08:58:36.179Z,47.41
2023-02-25T09:01:09.088Z,47.55
2023-02-25T09:03:36.805Z,48.36
2023-02-25T09:06:04.857Z,47.79
2023-02-25T09:08:32.690Z,47.79
2023-02-25T09:11:01.802Z,48.06
2023-02-25T09:13:29.576Z,48.16
2023-02-25T09:15:58.474Z,48.13
2023-02-25T09:18:26.998Z,48.33
2023-02-25T09:20:54.763Z,48.58
2023-02-25T09:23:22.494Z,48.74
2023-02-25T09:25:50.401Z,48.71
2023-02-25T09:28:19.567Z,48.48
2023-02-25T09:30:47.666Z,48.46
2023-02-25T09:33:16.148Z,48.68
2023-02-25T09:35:43.889Z,48.36
2023-02-25T09:38:12.650Z,48.31
2023-02-25T09:40:41.916Z,48.59
2023-02-25T09:43:26.107Z,48.36
2023-02-25T09:45:55.569Z,48.43
2023-02-25T09:48:30.288Z,48.42
2023-02-25T09:51:05.150Z,48.42
2023-02-25T09:53:38.011Z,48.25
2023-02-25T09:56:07.753Z,48.33
2023-02-25T09:58:42.538Z,48.47
2023-02-25T10:01:17.949Z,48.55
2023-02-25T10:03:53.402Z,48.40
2023-02-25T10:06:28.857Z,48.42
2023-02-25T10:09:05.864Z,48.37
2023-02-25T10:11:42.932Z,48.24
2023-02-25T10:14:25.281Z,47.71
2023-02-25T10:16:58.888Z,47.80
2023-02-25T10:19:43.480Z,47.55
2023-02-25T10:22:27.556Z,47.48
2023-02-25T10:25:00.831Z,47.44
2023-02-25T10:27:33.179Z,47.39
2023-02-25T10:30:08.016Z,47.27
2023-02-25T10:32:38.082Z,47.09
2023-02-25T10:35:17.352Z,46.35
2023-02-25T10:37:45.501Z,46.48
2023-02-25T10:40:17.545Z,46.46
2023-02-25T10:42:49.044Z,46.38
2023-02-25T10:45:23.225Z,46.44
2023-02-25T10:47:57.075Z,46.39
2023-02-25T10:50:42.766Z,46.42
2023-02-25T10:53:16.685Z,46.81
2023-02-25T10:55:52.407Z,47.34
2023-02-25T10:58:27.878Z,47.42
2023-02-25T11:01:04.265Z,47.83
2023-02-25T11:03:34.473Z,47.93
2023-02-25T11:06:11.910Z,48.25
2023-02-25T11:08:41.792Z,48.08
2023-02-25T11:11:17.704Z,48.39
2023-02-25T11:13:56.215Z,48.33
2023-02-25T11:16:25.716Z,48.38
2023-02-25T11:18:56.453Z,48.97
2023-02-25T11:21:33.477Z,49.99
2023-02-25T11:24:03.863Z,49.64
2023-02-25T11:26:34.537Z,49.97
2023-02-25T11:29:06.568Z,50.07
2023-02-25T11:31:40.571Z,50.67
2023-02-25T11:34:16.524Z,50.69
2023-02-25T11:36:44.628Z,50.55
2023-02-25T11:39:17.894Z,50.72
2023-02-25T11:41:46.613Z,50.56
2023-02-25T11:44:28.217Z,50.84
2023-02-25T11:47:06.066Z,50.47
2023-02-25T11:50:02.490Z,49.88
2023-02-25T11:52:39.916Z,49.91
2023-02-25T11:55:20.415Z,49.60
2023-02-25T11:58:05.643Z,49.16
2023-02-25T12:00:40.048Z,49.50
2023-02-25T12:03:47.347Z,48.77
2023-02-25T12:06:25.830Z,48.55
2023-02-25T12:09:21.763Z,47.13
2023-02-25T12:12:21.363Z,47.22
2023-02-25T12:15:33.924Z,47.34
2023-02-25T12:18:40.438Z,47.14
2023-02-25T12:21:40.440Z,46.58
2023-02-25T12:24:35.421Z,46.46
2023-02-25T12:27:32.007Z,46.63
2023-02-25T12:30:22.212Z,46.28
2023-02-25T12:33:00.992Z,45.29
2023-02-25T12:35:41.449Z,44.91
2023-02-25T12:38:35.144Z,43.47
2023-02-25T12:41:19.641Z,41.30
2023-02-25T12:43:52.232Z,42.23
2023-02-25T12:46:44.709Z,41.28
2023-02-25T12:49:32.185Z,38.26
2023-02-25T12:52:24.728Z,40.40
2023-02-25T12:55:30.921Z,39.58
2023-02-25T12:58:18.097Z,39.92
2023-02-25T13:01:18.785Z,39.91
2023-02-25T13:04:04.311Z,39.48
2023-02-25T13:06:54.826Z,40.48
2023-02-25T13:09:36.430Z,38.68
2023-02-25T13:12:18.491Z,39.48
2023-02-25T13:15:00.512Z,39.33
2023-02-25T13:17:44.388Z,39.28
2023-02-25T13:20:35.429Z,39.62
2023-02-25T13:23:21.793Z,39.93
2023-02-25T13:26:05.010Z,40.06
2023-02-25T13:28:49.123Z,38.29
2023-02-25T13:31:27.604Z,38.92
2023-02-25T13:34:09.111Z,37.70
2023-02-25T13:37:05.413Z,37.14
2023-02-25T13:39:46.410Z,36.66
2023-02-25T13:42:32.175Z,37.38
2023-02-25T13:45:29.475Z,37.60
2023-02-25T13:48:12.491Z,37.50
2023-02-25T13:50:54.184Z,38.35
2023-02-25T13:53:34.988Z,35.52
2023-02-25T13:56:34.014Z,37.29
2023-02-25T13:59:14.900Z,36.81
2023-02-25T14:01:55.198Z,36.94
2023-02-25T14:05:04.979Z,36.47
2023-02-25T14:08:01.073Z,36.58
2023-02-25T14:10:43.324Z,36.47
2023-02-25T14:13:30.530Z,36.44
2023-02-25T14:16:08.406Z,37.41
2023-02-25T14:18:49.947Z,36.46
2023-02-25T14:21:43.395Z,36.05
2023-02-25T14:24:15.862Z,35.65
2023-02-25T14:26:55.282Z,37.24
2023-02-25T14:29:33.743Z,31.83
2023-02-25T14:32:20.602Z,35.85
2023-02-25T14:35:04.076Z,36.06
2023-02-25T14:37:40.113Z,35.64
2023-02-25T14:40:19.717Z,34.75
2023-02-25T14:43:14.847Z,34.73
2023-02-25T14:45:47.336Z,36.63
2023-02-25T14:48:22.156Z,36.26
2023-02-25T14:50:54.902Z,36.02
2023-02-25T14:54:01.600Z,33.90
2023-02-25T14:56:48.938Z,33.10
2023-02-25T14:59:44.058Z,34.14
2023-02-25T15:02:28.750Z,34.41
2023-02-25T15:05:25.566Z,33.65
2023-02-25T15:08:07.954Z,34.33
2023-02-25T15:10:49.347Z,33.60
2023-02-25T15:13:52.157Z,34.18
2023-02-25T15:16:54.424Z,33.55
2023-02-25T15:19:45.832Z,34.04
2023-02-25T15:22:23.744Z,32.67
2023-02-25T15:24:53.248Z,34.89
2023-02-25T15:27:49.061Z,30.51
2023-02-25T15:30:20.802Z,33.05
2023-02-25T15:32:56.786Z,33.15
2023-02-25T15:35:45.558Z,34.55
2023-02-25T15:38:19.310Z,34.99
2023-02-25T15:40:51.242Z,33.76
2023-02-25T15:43:47.063Z,31.44
2023-02-25T15:46:41.153Z,32.41
2023-02-25T15:49:23.309Z,32.47
2023-02-25T15:51:53.043Z,34.33
2023-02-25T15:54:50.236Z,32.54
2023-02-25T15:57:37.228Z,32.01
2023-02-25T16:00:26.084Z,32.61
2023-02-25T16:03:01.674Z,33.04
2023-02-25T16:05:36.209Z,33.62
2023-02-25T16:08:15.362Z,33.31
2023-02-25T16:10:47.390Z,34.13
2023-02-25T16:13:17.999Z,34.29
2023-02-25T16:15:49.299Z,34.68
2023-02-25T16:18:26.540Z,32.92
2023-02-25T16:20:59.152Z,34.14
2023-02-25T16:23:28.436Z,34.60
2023-02-25T16:26:09.190Z,33.20
2023-02-25T16:28:45.232Z,33.15
2023-02-25T16:31:19.704Z,32.61
2023-02-25T16:33:53.791Z,33.11
2023-02-25T16:36:31.768Z,32.51
2023-02-25T16:39:03.258Z,33.39
2023-02-25T16:41:38.152Z,33.91
2023-02-25T16:44:07.151Z,33.80
2023-02-25T16:46:38.736Z,33.60
2023-02-25T16:49:11.344Z,32.83
2023-02-25T16:51:42.350Z,33.31
2023-02-25T16:54:14.440Z,33.82
2023-02-25T16:56:46.361Z,33.77
2023-02-25T16:59:21.462Z,33.04
2023-02-25T17:01:55.288Z,34.10
2023-02-25T17:04:27.628Z,33.32
2023-02-25T17:07:08.333Z,32.09
2023-02-25T17:09:36.575Z,33.74
2023-02-25T17:12:05.344Z,33.98
2023-02-25T17:14:33.369Z,34.13
2023-02-25T17:17:01.234Z,33.85
2023-02-25T17:19:30.491Z,34.07
2023-02-25T17:22:00.723Z,33.97
2023-02-25T17:24:32.436Z,34.16
2023-02-25T17:27:01.914Z,34.20
2023-02-25T17:29:36.179Z,33.43
2023-02-25T17:32:15.164Z,33.06
2023-02-25T17:34:44.882Z,34.39
2023-02-25T17:37:13.986Z,34.96
2023-02-25T17:39:44.199Z,34.65
2023-02-25T17:42:29.901Z,32.60
2023-02-25T17:44:58.272Z,34.28
2023-02-25T17:47:28.826Z,34.13
2023-02-25T17:49:59.914Z,34.41
2023-02-25T17:52:31.105Z,34.29
2023-02-25T17:55:00.764Z,34.38
2023-02-25T17:57:31.141Z,34.59
2023-02-25T18:00:05.265Z,34.58
2023-02-25T18:02:40.128Z,34.47
2023-02-25T18:05:27.144Z,32.14
2023-02-25T18:08:11.133Z,31.79
2023-02-25T18:10:56.999Z,32.70
2023-02-25T18:13:36.552Z,32.80
2023-02-25T18:16:39.260Z,33.45
2023-02-25T18:19:26.941Z,33.91
2023-02-25T18:21:56.702Z,34.49
2023-02-25T18:24:27.637Z,34.29
2023-02-25T18:27:18.827Z,33.33
2023-02-25T18:29:46.671Z,34.80
2023-02-25T18:32:14.573Z,34.52
2023-02-25T18:34:42.887Z,34.73
2023-02-25T18:37:15.285Z,33.68
2023-02-25T18:39:43.110Z,34.57
2023-02-25T18:42:14.930Z,34.26
2023-02-25T18:44:43.138Z,34.76
2023-02-25T18:47:11.023Z,34.79
2023-02-25T18:49:38.861Z,34.96
2023-02-25T18:52:12.529Z,34.92
2023-02-25T18:54:42.884Z,34.82
2023-02-25T18:57:19.071Z,33.81
2023-02-25T18:59:46.855Z,34.94
2023-02-25T19:02:26.454Z,33.94
2023-02-25T19:04:55.399Z,34.88
2023-02-25T19:07:25.991Z,34.95
2023-02-25T19:09:56.256Z,35.17
2023-02-25T19:12:25.582Z,34.80
2023-02-25T19:14:59.678Z,34.75
2023-02-25T19:17:28.415Z,35.25
2023-02-25T19:19:56.250Z,35.13
2023-02-25T19:22:24.869Z,35.19
2023-02-25T19:24:53.082Z,35.05
2023-02-25T19:27:24.427Z,34.59
2023-02-25T19:29:54.896Z,35.10
2023-02-25T19:32:22.868Z,35.06
2023-02-25T19:34:51.492Z,35.45
2023-02-25T19:37:21.168Z,35.37
2023-02-25T19:39:49.010Z,35.52
2023-02-25T19:42:16.768Z,35.47
2023-02-25T19:44:45.852Z,35.27
2023-02-25T19:47:13.655Z,35.61
2023-02-25T19:49:41.588Z,35.64
2023-02-25T19:52:09.324Z,35.89
2023-02-25T19:54:37.251Z,35.60
2023-02-25T19:57:04.983Z,35.76
2023-02-25T19:59:32.773Z,35.64
2023-02-25T20:02:01.892Z,35.79
2023-02-25T20:04:29.974Z,35.63
2023-02-25T20:06:58.729Z,35.80
2023-02-25T20:09:26.492Z,35.67
2023-02-25T20:11:54.274Z,35.92
2023-02-25T20:14:22.928Z,35.98
2023-02-25T20:16:50.939Z,35.93
2023-02-25T20:19:20.065Z,35.90
2023-02-25T20:21:48.011Z,35.91
2023-02-25T20:24:15.762Z,35.81
2023-02-25T20:26:44.979Z,35.87
2023-02-25T20:29:12.803Z,36.04
2023-02-25T20:31:40.904Z,36.03
2023-02-25T20:34:14.611Z,35.50
2023-02-25T20:36:52.651Z,35.57
2023-02-25T20:39:42.249Z,35.45
2023-02-25T20:42:13.437Z,36.20
2023-02-25T20:44:42.146Z,36.21
2023-02-25T20:47:17.798Z,35.86
2023-02-25T20:49:45.943Z,36.17
2023-02-25T20:52:16.176Z,35.92
2023-02-25T20:54:44.340Z,36.17
2023-02-25T20:57:13.753Z,36.26
2023-02-25T20:59:41.747Z,36.33
2023-02-25T21:02:10.767Z,36.30
2023-02-25T21:04:39.388Z,36.42
2023-02-25T21:07:07.826Z,36.28
2023-02-25T21:09:37.346Z,36.14
2023-02-25T21:12:05.567Z,36.35
2023-02-25T21:14:33.454Z,36.35
2023-02-25T21:17:01.228Z,36.28
2023-02-25T21:19:29.348Z,36.38
2023-02-25T21:21:57.185Z,36.60
2023-02-25T21:24:27.241Z,36.50
2023-02-25T21:26:56.448Z,36.33
2023-02-25T21:29:24.217Z,36.46
2023-02-25T21:31:52.034Z,36.63
2023-02-25T21:34:20.102Z,36.51
2023-02-25T21:36:48.387Z,36.73
2023-02-25T21:39:16.221Z,36.58
2023-02-25T21:41:44.978Z,36.65
2023-02-25T21:44:14.486Z,36.45
2023-02-25T21:46:42.619Z,36.66
2023-02-25T21:49:11.086Z,36.68
2023-02-25T21:51:40.166Z,36.47
2023-02-25T21:54:08.152Z,36.81
2023-02-25T21:56:36.075Z,36.80
2023-02-25T21:59:06.315Z,36.69
2023-02-25T22:01:38.468Z,36.56
2023-02-25T22:04:06.603Z,36.79
2023-02-25T22:06:34.796Z,36.97
2023-02-25T22:09:02.951Z,36.82
2023-02-25T22:11:32.993Z,36.86
2023-02-25T22:14:02.480Z,36.65
2023-02-25T22:16:30.533Z,36.86
2023-02-25T22:19:00.475Z,36.72
2023-02-25T22:21:29.888Z,36.64
2023-02-25T22:23:59.923Z,36.81
2023-02-25T22:26:29.731Z,36.81
2023-02-25T22:28:59.170Z,36.99
2023-02-25T22:31:28.103Z,37.04
2023-02-25T22:33:56.981Z,37.03
2023-02-25T22:36:26.925Z,36.98
2023-02-25T22:38:55.794Z,37.01
2023-02-25T22:41:25.666Z,36.85
2023-02-25T22:43:53.725Z,36.94
2023-02-25T22:46:23.390Z,37.12
2023-02-25T22:48:52.434Z,37.05
2023-02-25T22:51:21.836Z,37.13
2023-02-25T22:53:51.391Z,36.91
2023-02-25T22:56:19.530Z,37.08
2023-02-25T22:58:47.368Z,37.18
2023-02-25T23:01:17.064Z,37.21
2023-02-25T23:03:44.918Z,37.13
2023-02-25T23:06:13.569Z,37.28
2023-02-25T23:08:41.393Z,37.32
2023-02-25T23:11:13.102Z,37.16
2023-02-25T23:13:46.100Z,37.24
2023-02-25T23:16:14.597Z,37.46
2023-02-25T23:18:42.464Z,37.48
2023-02-25T23:21:16.148Z,37.32
2023-02-25T23:23:45.136Z,37.33
2023-02-25T23:26:16.082Z,37.48
2023-02-25T23:28:44.013Z,37.43
2023-02-25T23:31:19.187Z,37.25
2023-02-25T23:33:47.211Z,37.26
2023-02-25T23:36:15.135Z,37.48
2023-02-25T23:38:42.954Z,37.58
2023-02-25T23:41:14.986Z,37.58
2023-02-25T23:43:42.830Z,37.74
2023-02-25T23:46:10.746Z,37.59
2023-02-25T23:48:38.598Z,37.58
2023-02-25T23:51:07.375Z,37.45
2023-02-25T23:53:35.954Z,37.63
2023-02-25T23:56:08.418Z,37.78
2023-02-25T23:58:38.715Z,37.69
